Time;durP1;ratioP1;P1;durP2;ratioP2;P2;SDS_P1;SDS_P2;PMS_P1;PMS_P2;Temp;Humidity;BMP_temperature;BMP_pressure;BME280_temperature;BME280_humidity;BME280_pressure;Samples;Min_cycle;Max_cycle;Signal;HPM_P1;HPM_P2
2023/10/05 00:01:45;;;;;;;7.45;3.22;;;;;;;;;;5104404;28;20040;-81
2023/10/05 00:04:15;;;;;;;10.13;3.35;;;;;;;;;;5103485;28;20035;-81
2023/10/05 00:06:42;;;;;;;6.88;3.05;;;;;;;;;;5097362;28;20099;-81
2023/10/05 00:09:11;;;;;;;8.27;3.22;;;;;;;;;;5103111;28;20031;-81
2023/10/05 00:11:36;;;;;;;7.40;3.35;;;;;;;;;;5102098;28;20024;-81
2023/10/05 00:14:06;;;;;;;8.50;3.30;;;;;;;;;;5079867;28;20403;-81
2023/10/05 00:16:37;;;;;;;7.05;3.28;;;;;;;;;;5100680;28;20047;-81
2023/10/05 00:19:12;;;;;;;9.20;2.80;;;;;;;;;;5094651;28;20039;-81
2023/10/05 00:21:40;;;;;;;7.22;3.10;;;;;;;;;;5085462;28;20491;-81
2023/10/05 00:24:08;;;;;;;7.80;3.10;;;;;;;;;;5101393;28;20028;-81
2023/10/05 00:26:34;;;;;;;7.65;3.25;;;;;;;;;;5085559;28;20090;-81
2023/10/05 00:29:12;;;;;;;7.70;2.60;;;;;;;;;;5079466;28;20422;-81
2023/10/05 00:31:41;;;;;;;7.90;3.13;;;;;;;;;;5081017;28;20560;-81
2023/10/05 00:34:13;;;;;;;6.70;3.03;;;;;;;;;;5101765;28;20020;-81
2023/10/05 00:36:43;;;;;;;8.35;3.08;;;;;;;;;;5082177;28;20044;-81
2023/10/05 00:39:09;;;;;;;7.35;2.92;;;;;;;;;;5085482;28;20391;-81
2023/10/05 00:41:34;;;;;;;9.25;3.67;;;;;;;;;;5079707;28;20064;-81
2023/10/05 00:44:00;;;;;;;8.10;3.10;;;;;;;;;;5093367;28;20066;-81
2023/10/05 00:46:25;;;;;;;7.57;2.78;;;;;;;;;;5104415;28;20035;-81
2023/10/05 00:49:04;;;;;;;9.30;3.08;;;;;;;;;;5100631;28;20040;-81
2023/10/05 00:51:32;;;;;;;8.98;3.65;;;;;;;;;;5095058;28;20036;-82
2023/10/05 00:53:58;;;;;;;7.10;2.70;;;;;;;;;;5086033;28;20056;-81
2023/10/05 00:56:24;;;;;;;8.52;3.47;;;;;;;;;;5101431;28;20024;-81
2023/10/05 00:58:59;;;;;;;8.65;3.10;;;;;;;;;;5084684;28;20510;-81
2023/10/05 01:01:28;;;;;;;8.52;2.80;;;;;;;;;;5069505;28;20031;-80
2023/10/05 01:06:56;;;;;;;6.63;2.60;;;;;;;;;;5051222;28;20115;-80
2023/10/05 01:12:13;;;;;;;9.07;3.00;;;;;;;;;;5100244;28;20032;-81
2023/10/05 01:14:43;;;;;;;6.05;2.63;;;;;;;;;;5093354;28;20411;-81
2023/10/05 01:17:08;;;;;;;7.35;2.67;;;;;;;;;;5100757;28;20024;-81
2023/10/05 01:19:38;;;;;;;5.97;2.60;;;;;;;;;;5100685;28;20496;-81
2023/10/05 01:22:06;;;;;;;10.00;3.28;;;;;;;;;;5086079;28;20051;-82
2023/10/05 01:24:31;;;;;;;8.18;2.95;;;;;;;;;;5066281;28;20051;-82
2023/10/05 01:26:57;;;;;;;6.22;2.42;;;;;;;;;;5083304;28;20073;-81
2023/10/05 01:29:22;;;;;;;8.73;2.70;;;;;;;;;;5086263;28;20027;-81
2023/10/05 01:31:48;;;;;;;7.97;3.00;;;;;;;;;;5103102;28;20032;-81
2023/10/05 01:34:14;;;;;;;9.98;3.13;;;;;;;;;;5104786;28;20058;-82
2023/10/05 01:36:39;;;;;;;6.60;2.60;;;;;;;;;;5083210;28;20021;-82
2023/10/05 01:39:08;;;;;;;6.57;2.70;;;;;;;;;;5101239;28;20743;-82
2023/10/05 01:41:33;;;;;;;8.93;3.58;;;;;;;;;;5098468;28;20032;-82
2023/10/05 01:44:00;;;;;;;7.95;2.65;;;;;;;;;;5101490;28;20065;-81
2023/10/05 01:46:25;;;;;;;7.55;2.63;;;;;;;;;;5088285;28;20046;-82
2023/10/05 01:48:51;;;;;;;10.43;3.40;;;;;;;;;;5107898;28;20488;-82
2023/10/05 01:51:21;;;;;;;6.07;2.92;;;;;;;;;;5104745;28;20043;-82
2023/10/05 01:53:51;;;;;;;8.75;2.72;;;;;;;;;;5089014;28;20027;-81
2023/10/05 01:56:20;;;;;;;8.75;3.67;;;;;;;;;;5072246;28;20043;-82
2023/10/05 01:58:50;;;;;;;7.65;3.03;;;;;;;;;;5087347;28;20110;-81
2023/10/05 02:01:16;;;;;;;12.13;3.15;;;;;;;;;;5085776;28;20028;-81
2023/10/05 02:03:41;;;;;;;7.80;3.17;;;;;;;;;;5088756;28;20073;-81
2023/10/05 02:06:11;;;;;;;8.90;3.00;;;;;;;;;;5101988;28;20048;-82
2023/10/05 02:08:37;;;;;;;7.53;3.00;;;;;;;;;;5098358;28;20023;-82
2023/10/05 02:11:04;;;;;;;10.38;3.40;;;;;;;;;;5099846;28;20035;-81
2023/10/05 02:13:33;;;;;;;6.88;2.85;;;;;;;;;;5101221;28;20024;-82
2023/10/05 02:16:00;;;;;;;8.32;3.17;;;;;;;;;;5109775;28;20027;-81
2023/10/05 02:18:30;;;;;;;7.80;3.58;;;;;;;;;;5088147;28;20035;-82
2023/10/05 02:21:07;;;;;;;8.48;2.85;;;;;;;;;;5103828;28;20063;-82
2023/10/05 02:23:40;;;;;;;11.63;3.28;;;;;;;;;;5101827;28;20030;-81
2023/10/05 02:28:51;;;;;;;9.93;3.28;;;;;;;;;;5088537;28;20395;-83
2023/10/05 02:31:16;;;;;;;11.05;3.33;;;;;;;;;;5085852;28;20024;-83
2023/10/05 02:33:43;;;;;;;9.23;3.25;;;;;;;;;;5090572;28;20035;-82
2023/10/05 02:36:11;;;;;;;9.57;3.45;;;;;;;;;;5105342;28;20024;-83
2023/10/05 02:38:37;;;;;;;13.70;3.55;;;;;;;;;;5089397;28;20027;-83
2023/10/05 02:41:05;;;;;;;8.40;3.65;;;;;;;;;;5105573;28;20047;-82
2023/10/05 02:43:38;;;;;;;8.85;3.92;;;;;;;;;;5087453;28;20024;-82
2023/10/05 02:46:09;;;;;;;10.52;3.80;;;;;;;;;;5087089;28;20055;-83
2023/10/05 02:48:36;;;;;;;9.57;4.03;;;;;;;;;;5108429;28;20034;-83
2023/10/05 02:51:05;;;;;;;11.90;3.67;;;;;;;;;;5085709;28;20121;-82
2023/10/05 02:53:37;;;;;;;8.98;3.70;;;;;;;;;;5095436;28;20101;-81
2023/10/05 02:56:03;;;;;;;10.75;3.63;;;;;;;;;;5088004;28;20042;-81
2023/10/05 02:58:29;;;;;;;10.65;4.00;;;;;;;;;;5086899;28;20039;-81
2023/10/05 03:00:54;;;;;;;9.77;3.92;;;;;;;;;;5084569;28;20055;-81
2023/10/05 03:03:19;;;;;;;13.80;3.92;;;;;;;;;;5087532;28;20054;-81
2023/10/05 03:05:45;;;;;;;13.00;4.65;;;;;;;;;;5085546;28;20031;-80
2023/10/05 03:08:10;;;;;;;11.63;4.47;;;;;;;;;;5086931;28;20026;-80
2023/10/05 03:10:36;;;;;;;11.25;3.92;;;;;;;;;;5100099;28;20097;-80
2023/10/05 03:13:03;;;;;;;11.23;3.78;;;;;;;;;;5087450;28;20032;-81
2023/10/05 03:15:29;;;;;;;10.18;4.40;;;;;;;;;;5084816;28;20419;-81
2023/10/05 03:17:58;;;;;;;10.10;3.92;;;;;;;;;;5079920;28;20019;-81
2023/10/05 03:20:24;;;;;;;10.57;4.47;;;;;;;;;;5104397;28;20087;-81
2023/10/05 03:22:49;;;;;;;10.85;4.50;;;;;;;;;;5098421;28;20032;-80
2023/10/05 03:25:16;;;;;;;11.50;4.07;;;;;;;;;;5087924;28;20388;-80
2023/10/05 03:27:45;;;;;;;12.27;4.57;;;;;;;;;;5083742;28;20016;-80
2023/10/05 03:30:14;;;;;;;12.98;5.15;;;;;;;;;;5084475;28;20020;-81
2023/10/05 03:32:40;;;;;;;16.02;5.68;;;;;;;;;;5086633;28;20035;-81
2023/10/05 03:35:08;;;;;;;13.05;5.82;;;;;;;;;;5093028;28;20024;-81
2023/10/05 03:37:34;;;;;;;12.35;5.70;;;;;;;;;;5084503;28;20606;-80
2023/10/05 03:40:08;;;;;;;10.25;4.72;;;;;;;;;;5082047;28;20036;-81
2023/10/05 03:42:33;;;;;;;11.02;4.97;;;;;;;;;;5082416;28;20028;-81
2023/10/05 03:45:09;;;;;;;10.25;4.70;;;;;;;;;;5080477;28;20051;-81
2023/10/05 03:47:37;;;;;;;12.73;5.10;;;;;;;;;;5079319;28;20487;-82
2023/10/05 03:50:04;;;;;;;13.52;4.40;;;;;;;;;;5080969;28;20035;-82
2023/10/05 03:52:32;;;;;;;11.45;4.50;;;;;;;;;;5082234;28;20455;-83
2023/10/05 03:55:01;;;;;;;9.73;4.00;;;;;;;;;;5086641;28;20031;-84
2023/10/05 03:57:30;;;;;;;13.73;4.40;;;;;;;;;;5082421;28;20032;-79
2023/10/05 03:59:57;;;;;;;10.45;3.97;;;;;;;;;;5079432;28;20051;-83
2023/10/05 04:02:24;;;;;;;9.80;4.75;;;;;;;;;;5097004;28;20058;-83
2023/10/05 04:04:50;;;;;;;12.27;4.90;;;;;;;;;;5101506;28;20039;-83
2023/10/05 04:07:15;;;;;;;14.13;5.13;;;;;;;;;;5101018;28;20028;-83
2023/10/05 04:09:41;;;;;;;11.55;5.53;;;;;;;;;;5105787;28;20040;-83
2023/10/05 04:12:10;;;;;;;10.95;5.28;;;;;;;;;;5076390;28;20028;-81
2023/10/05 04:14:37;;;;;;;14.18;5.78;;;;;;;;;;5090818;28;20036;-82
2023/10/05 04:17:07;;;;;;;11.82;5.07;;;;;;;;;;5093067;28;20487;-82
2023/10/05 04:19:33;;;;;;;14.95;5.47;;;;;;;;;;5088612;28;20032;-81
2023/10/05 04:21:59;;;;;;;13.40;5.50;;;;;;;;;;5093369;28;20460;-81
2023/10/05 04:24:26;;;;;;;12.38;5.28;;;;;;;;;;5093668;28;20025;-81
2023/10/05 04:26:52;;;;;;;24.25;14.25;;;;;;;;;;5069675;28;20089;-82
2023/10/05 04:29:20;;;;;;;10.50;4.18;;;;;;;;;;5092068;28;20528;-82
2023/10/05 04:31:48;;;;;;;12.50;4.80;;;;;;;;;;5097416;28;20040;-81
2023/10/05 04:34:20;;;;;;;12.45;4.50;;;;;;;;;;5081982;28;20169;-82
2023/10/05 04:36:48;;;;;;;11.73;4.18;;;;;;;;;;5097868;28;20028;-82
2023/10/05 04:39:21;;;;;;;10.93;4.22;;;;;;;;;;5078435;28;20107;-81
2023/10/05 04:41:49;;;;;;;9.60;3.50;;;;;;;;;;5091017;28;20069;-83
2023/10/05 04:44:15;;;;;;;11.35;5.07;;;;;;;;;;5093269;28;20404;-82
2023/10/05 04:46:47;;;;;;;8.23;3.97;;;;;;;;;;5092458;28;20016;-82
2023/10/05 04:49:12;;;;;;;10.82;4.13;;;;;;;;;;5099126;28;20483;-82
2023/10/05 04:51:39;;;;;;;10.02;3.75;;;;;;;;;;5103957;28;20061;-82
2023/10/05 04:54:06;;;;;;;9.32;3.55;;;;;;;;;;5092890;28;20034;-83
2023/10/05 04:56:43;;;;;;;11.27;4.07;;;;;;;;;;5100343;28;20019;-83
2023/10/05 05:06:59;;;;;;;13.02;5.03;;;;;;;;;;5090696;28;20039;-82
2023/10/05 05:09:34;;;;;;;9.45;4.32;;;;;;;;;;5053654;28;20032;-82
2023/10/05 05:12:06;;;;;;;9.05;3.90;;;;;;;;;;5098614;28;20035;-83
2023/10/05 05:14:35;;;;;;;10.63;4.85;;;;;;;;;;5085301;28;20151;-83
2023/10/05 05:17:06;;;;;;;11.98;4.53;;;;;;;;;;5078304;28;20112;-83
2023/10/05 05:19:37;;;;;;;10.50;3.73;;;;;;;;;;5079173;28;20032;-83
2023/10/05 05:22:04;;;;;;;10.73;4.68;;;;;;;;;;5095457;28;20106;-83
2023/10/05 05:24:30;;;;;;;12.23;4.28;;;;;;;;;;5156624;22;20131;-78
2023/10/05 05:27:00;;;;;;;12.25;4.68;;;;;;;;;;5099528;28;20051;-78
2023/10/05 05:29:26;;;;;;;9.77;3.47;;;;;;;;;;5100584;28;20024;-77
2023/10/05 05:31:51;;;;;;;9.75;4.15;;;;;;;;;;5102802;28;20487;-78
2023/10/05 05:34:16;;;;;;;11.00;4.65;;;;;;;;;;5080534;28;20025;-78
2023/10/05 05:36:41;;;;;;;12.65;4.32;;;;;;;;;;5070699;28;20025;-77
2023/10/05 05:39:07;;;;;;;9.88;4.15;;;;;;;;;;5072732;28;20519;-78
2023/10/05 05:41:36;;;;;;;10.43;4.75;;;;;;;;;;5054558;28;20412;-78
2023/10/05 05:44:03;;;;;;;11.57;4.65;;;;;;;;;;5057346;28;20036;-78
2023/10/05 05:46:28;;;;;;;13.07;4.35;;;;;;;;;;5056759;28;20044;-78
2023/10/05 05:48:53;;;;;;;8.88;4.15;;;;;;;;;;5071951;28;20097;-78
2023/10/05 05:51:21;;;;;;;12.75;3.97;;;;;;;;;;5072430;28;20558;-78
2023/10/05 05:53:47;;;;;;;11.38;4.78;;;;;;;;;;5070046;28;20412;-78
2023/10/05 05:56:16;;;;;;;10.13;3.77;;;;;;;;;;5072611;28;20029;-78
2023/10/05 05:58:44;;;;;;;9.77;3.72;;;;;;;;;;5066672;28;20286;-78
2023/10/05 06:01:09;;;;;;;11.57;4.22;;;;;;;;;;5069389;28;20032;-78
2023/10/05 06:03:34;;;;;;;11.18;4.38;;;;;;;;;;5074889;28;20029;-77
2023/10/05 06:06:00;;;;;;;11.67;4.30;;;;;;;;;;5072949;28;20028;-78
2023/10/05 06:08:26;;;;;;;10.73;4.53;;;;;;;;;;5057491;28;20344;-78
2023/10/05 06:10:51;;;;;;;10.75;4.30;;;;;;;;;;5067265;28;20029;-78
2023/10/05 06:13:18;;;;;;;11.07;4.10;;;;;;;;;;5070848;28;20074;-78
2023/10/05 06:15:43;;;;;;;13.75;4.63;;;;;;;;;;5068169;28;20032;-78
2023/10/05 06:18:08;;;;;;;12.25;4.40;;;;;;;;;;5073411;28;20093;-78
2023/10/05 06:20:35;;;;;;;12.90;4.45;;;;;;;;;;5071522;28;20037;-78
2023/10/05 06:23:00;;;;;;;10.60;4.25;;;;;;;;;;5069434;28;20039;-78
2023/10/05 06:25:25;;;;;;;11.70;4.72;;;;;;;;;;5069599;28;20397;-81
2023/10/05 06:27:51;;;;;;;10.90;4.10;;;;;;;;;;5053786;28;20033;-80
2023/10/05 06:30:16;;;;;;;9.10;3.78;;;;;;;;;;5075036;28;20060;-81
2023/10/05 06:32:44;;;;;;;12.77;4.40;;;;;;;;;;5056785;28;20437;-81
2023/10/05 06:35:11;;;;;;;9.88;3.83;;;;;;;;;;5071872;28;20040;-80
2023/10/05 06:37:39;;;;;;;10.77;4.75;;;;;;;;;;5054080;28;20036;-81
2023/10/05 06:40:15;;;;;;;9.27;3.83;;;;;;;;;;5053555;28;20144;-79
2023/10/05 06:42:41;;;;;;;12.30;4.00;;;;;;;;;;5054873;28;20397;-81
2023/10/05 06:45:11;;;;;;;13.00;4.72;;;;;;;;;;5056646;28;20408;-81
2023/10/05 06:47:36;;;;;;;8.80;4.25;;;;;;;;;;5058608;28;20029;-81
2023/10/05 06:53:27;;;;;;;9.30;4.20;;;;;;;;;;5070152;28;20025;-79
2023/10/05 06:55:54;;;;;;;9.65;4.28;;;;;;;;;;5066600;28;20051;-78
2023/10/05 06:58:19;;;;;;;16.08;4.35;;;;;;;;;;5072366;28;20059;-78
2023/10/05 07:00:44;;;;;;;10.03;3.87;;;;;;;;;;5058553;28;20041;-79
2023/10/05 07:03:11;;;;;;;12.30;4.03;;;;;;;;;;5054898;28;20717;-79
2023/10/05 07:05:36;;;;;;;14.10;4.57;;;;;;;;;;5056214;28;20880;-79
2023/10/05 07:08:02;;;;;;;9.27;4.00;;;;;;;;;;5074106;28;20040;-79
2023/10/05 07:10:27;;;;;;;11.15;3.90;;;;;;;;;;5038784;28;20041;-79
2023/10/05 07:12:52;;;;;;;10.65;4.13;;;;;;;;;;5055801;28;20040;-79
2023/10/05 07:15:18;;;;;;;10.02;3.60;;;;;;;;;;5073159;28;20070;-79
2023/10/05 07:17:43;;;;;;;9.45;4.22;;;;;;;;;;5072128;28;20381;-79
2023/10/05 07:20:12;;;;;;;11.10;4.28;;;;;;;;;;5071775;28;20032;-79
2023/10/05 07:22:38;;;;;;;11.88;3.42;;;;;;;;;;5066116;28;20054;-79
2023/10/05 07:25:04;;;;;;;10.32;3.90;;;;;;;;;;5069567;28;20165;-78
2023/10/05 07:27:30;;;;;;;8.88;3.50;;;;;;;;;;5057028;28;20032;-79
2023/10/05 07:29:55;;;;;;;8.95;3.65;;;;;;;;;;5073273;28;20028;-79
2023/10/05 07:32:20;;;;;;;11.13;3.90;;;;;;;;;;5072650;28;20322;-79
2023/10/05 07:34:45;;;;;;;11.73;4.30;;;;;;;;;;5029666;28;20325;-78
2023/10/05 07:37:10;;;;;;;11.48;4.32;;;;;;;;;;5068240;28;20754;-79
2023/10/05 07:39:42;;;;;;;9.40;3.67;;;;;;;;;;5070337;28;20025;-79
2023/10/05 07:42:08;;;;;;;8.98;4.63;;;;;;;;;;5055955;28;20036;-78
2023/10/05 07:44:35;;;;;;;9.88;3.70;;;;;;;;;;5069210;28;20040;-78
2023/10/05 07:47:02;;;;;;;9.50;3.22;;;;;;;;;;5049751;28;20033;-79
2023/10/05 07:49:27;;;;;;;9.70;3.83;;;;;;;;;;5070283;28;20052;-79
2023/10/05 07:51:52;;;;;;;9.20;3.50;;;;;;;;;;5052604;28;20477;-79
2023/10/05 07:54:17;;;;;;;12.95;4.43;;;;;;;;;;5055038;28;20021;-78
2023/10/05 07:56:43;;;;;;;12.77;4.30;;;;;;;;;;5051965;28;20495;-79
2023/10/05 07:59:08;;;;;;;10.80;4.00;;;;;;;;;;5070173;28;20086;-79
2023/10/05 08:01:33;;;;;;;10.60;3.50;;;;;;;;;;5070047;28;20313;-79
2023/10/05 08:03:58;;;;;;;11.67;4.13;;;;;;;;;;5063912;28;20283;-79
2023/10/05 08:06:25;;;;;;;10.00;3.90;;;;;;;;;;5065650;28;20327;-79
2023/10/05 08:08:50;;;;;;;10.00;4.05;;;;;;;;;;5068147;28;20302;-79
2023/10/05 08:11:20;;;;;;;10.48;3.90;;;;;;;;;;5071229;28;20028;-79
2023/10/05 08:13:45;;;;;;;9.57;4.15;;;;;;;;;;5067321;28;20087;-79
2023/10/05 08:16:12;;;;;;;8.37;3.57;;;;;;;;;;5066637;28;20423;-79
2023/10/05 08:18:37;;;;;;;10.15;3.92;;;;;;;;;;5048018;28;20293;-79
2023/10/05 08:21:04;;;;;;;12.23;3.75;;;;;;;;;;5066635;28;20028;-79
2023/10/05 08:23:29;;;;;;;10.18;3.92;;;;;;;;;;5054975;28;20610;-79
2023/10/05 08:25:57;;;;;;;10.95;4.03;;;;;;;;;;5068116;28;20059;-79
2023/10/05 08:28:24;;;;;;;9.40;3.60;;;;;;;;;;5070130;28;20032;-80
2023/10/05 08:31:04;;;;;;;9.10;3.38;;;;;;;;;;5051717;28;20043;-79
2023/10/05 08:33:33;;;;;;;11.63;4.15;;;;;;;;;;5067309;28;20029;-79
2023/10/05 08:35:59;;;;;;;11.52;3.92;;;;;;;;;;5069068;28;20070;-79
2023/10/05 08:38:24;;;;;;;7.67;3.40;;;;;;;;;;5037281;28;20029;-79
2023/10/05 08:40:52;;;;;;;11.23;3.75;;;;;;;;;;5049110;28;20312;-79
2023/10/05 08:43:19;;;;;;;7.63;3.20;;;;;;;;;;5055153;28;20550;-79
2023/10/05 08:45:51;;;;;;;13.57;4.47;;;;;;;;;;5064100;28;20040;-79
2023/10/05 08:48:28;;;;;;;9.00;3.53;;;;;;;;;;5065054;28;20148;-79
2023/10/05 08:50:54;;;;;;;11.45;3.33;;;;;;;;;;5053568;28;20377;-79
2023/10/05 08:53:20;;;;;;;8.40;3.42;;;;;;;;;;5055182;28;20396;-79
2023/10/05 08:55:46;;;;;;;8.90;3.00;;;;;;;;;;5066323;28;20032;-79
2023/10/05 08:58:18;;;;;;;15.00;3.95;;;;;;;;;;5065850;28;20451;-79
2023/10/05 09:00:43;;;;;;;18.33;4.00;;;;;;;;;;5064612;28;20454;-79
2023/10/05 09:03:29;;;;;;;9.27;3.00;;;;;;;;;;5068226;28;20086;-78
2023/10/05 09:06:12;;;;;;;15.55;4.07;;;;;;;;;;5050750;28;20408;-79
2023/10/05 09:08:41;;;;;;;10.18;3.55;;;;;;;;;;5050704;28;20542;-79
2023/10/05 09:11:09;;;;;;;9.13;3.45;;;;;;;;;;5066536;28;20098;-79
2023/10/05 09:13:44;;;;;;;10.55;3.13;;;;;;;;;;5049875;28;20090;-80
2023/10/05 09:16:15;;;;;;;9.95;2.78;;;;;;;;;;5032524;28;20505;-79
2023/10/05 09:18:49;;;;;;;12.00;3.40;;;;;;;;;;5070532;28;20024;-79
2023/10/05 09:21:18;;;;;;;8.15;3.92;;;;;;;;;;5066925;28;20630;-78
2023/10/05 09:23:44;;;;;;;9.82;2.97;;;;;;;;;;5048406;28;20079;-79
2023/10/05 09:26:39;;;;;;;8.50;3.08;;;;;;;;;;5025475;28;20033;-79
2023/10/05 09:29:20;;;;;;;11.02;3.10;;;;;;;;;;5063972;28;20033;-79
2023/10/05 09:31:47;;;;;;;10.20;3.58;;;;;;;;;;5067475;28;20036;-79
2023/10/05 09:34:15;;;;;;;8.80;3.25;;;;;;;;;;5051111;28;20115;-79
2023/10/05 09:36:41;;;;;;;9.93;3.00;;;;;;;;;;5048897;28;20044;-79
2023/10/05 09:39:10;;;;;;;9.02;3.28;;;;;;;;;;5067070;28;20676;-79
2023/10/05 09:41:36;;;;;;;7.13;3.45;;;;;;;;;;5050224;28;20423;-79
2023/10/05 09:44:07;;;;;;;8.15;3.03;;;;;;;;;;5066220;28;20029;-79
2023/10/05 09:46:33;;;;;;;8.85;3.15;;;;;;;;;;5062647;28;20492;-79
2023/10/05 09:49:01;;;;;;;9.73;3.17;;;;;;;;;;5067647;28;20044;-79
2023/10/05 09:51:26;;;;;;;8.23;3.42;;;;;;;;;;5043412;28;20028;-79
2023/10/05 09:53:58;;;;;;;10.48;3.30;;;;;;;;;;5045768;28;20040;-79
2023/10/05 09:56:25;;;;;;;9.75;2.92;;;;;;;;;;5060003;28;20071;-77
2023/10/05 09:58:52;;;;;;;9.20;2.83;;;;;;;;;;5055611;28;20129;-78
2023/10/05 10:01:20;;;;;;;6.65;2.65;;;;;;;;;;5066114;28;20028;-78
2023/10/05 10:03:46;;;;;;;8.90;3.20;;;;;;;;;;5054912;28;20441;-79
2023/10/05 10:06:18;;;;;;;9.02;2.97;;;;;;;;;;5067538;28;20070;-79
2023/10/05 10:08:57;;;;;;;8.95;2.88;;;;;;;;;;5035718;28;20028;-79
2023/10/05 10:11:27;;;;;;;9.50;3.22;;;;;;;;;;5069162;28;20043;-79
2023/10/05 10:14:06;;;;;;;8.57;2.58;;;;;;;;;;5071847;28;20107;-78
2023/10/05 10:16:39;;;;;;;6.00;2.38;;;;;;;;;;5060254;28;20033;-78
2023/10/05 10:19:06;;;;;;;8.60;2.60;;;;;;;;;;5073812;28;20050;-79
2023/10/05 10:21:35;;;;;;;8.38;2.92;;;;;;;;;;5057559;28;20039;-78
2023/10/05 10:24:06;;;;;;;8.02;3.13;;;;;;;;;;5075214;28;20035;-78
2023/10/05 10:26:44;;;;;;;7.57;2.40;;;;;;;;;;5041047;28;20032;-79
2023/10/05 10:29:22;;;;;;;7.25;2.50;;;;;;;;;;5042560;28;20028;-79
2023/10/05 10:32:07;;;;;;;6.18;2.67;;;;;;;;;;5056540;28;20438;-79
2023/10/05 10:34:49;;;;;;;9.70;2.65;;;;;;;;;;5054700;28;20095;-79
2023/10/05 10:37:34;;;;;;;11.48;3.10;;;;;;;;;;5071331;28;20113;-79
2023/10/05 10:40:00;;;;;;;10.70;2.85;;;;;;;;;;5053559;28;20033;-79
2023/10/05 10:42:45;;;;;;;8.77;2.95;;;;;;;;;;5048205;28;20115;-79
2023/10/05 10:45:14;;;;;;;7.50;3.05;;;;;;;;;;5068656;28;20037;-79
2023/10/05 10:47:44;;;;;;;7.93;2.40;;;;;;;;;;5055870;28;20040;-79
2023/10/05 10:50:22;;;;;;;6.18;2.55;;;;;;;;;;5067535;28;20037;-78
2023/10/05 10:52:58;;;;;;;6.38;2.53;;;;;;;;;;5067643;28;20029;-79
2023/10/05 10:55:36;;;;;;;14.52;2.95;;;;;;;;;;5056213;28;20074;-79
2023/10/05 10:58:04;;;;;;;7.78;2.90;;;;;;;;;;5055066;28;20041;-79
2023/10/05 11:03:15;;;;;;;7.53;2.40;;;;;;;;;;5041099;28;20033;-79
2023/10/05 11:05:41;;;;;;;6.80;2.50;;;;;;;;;;5050553;28;20036;-78
2023/10/05 11:08:13;;;;;;;9.25;2.80;;;;;;;;;;5067494;28;20048;-80
2023/10/05 11:11:19;;;;;;;8.23;2.35;;;;;;;;;;5040771;28;20024;-79
2023/10/05 11:14:15;;;;;;;;;;;;;;;;;;;;;
2023/10/05 11:17:10;;;;;;;7.63;3.22;;;;;;;;;;5066934;28;20083;-80
2023/10/05 11:19:36;;;;;;;7.60;2.30;;;;;;;;;;5047645;28;20040;-79
2023/10/05 11:22:07;;;;;;;6.80;2.42;;;;;;;;;;5068042;28;20028;-80
2023/10/05 11:24:37;;;;;;;6.32;2.38;;;;;;;;;;5069714;28;20033;-79
2023/10/05 11:29:42;;;;;;;8.65;2.70;;;;;;;;;;5053943;28;20462;-79
2023/10/05 11:32:21;;;;;;;7.57;2.25;;;;;;;;;;5048543;28;20048;-78
2023/10/05 11:34:46;;;;;;;7.65;2.92;;;;;;;;;;5105777;22;20040;-84
2023/10/05 11:37:18;;;;;;;6.93;2.40;;;;;;;;;;5092798;28;20040;-84
2023/10/05 11:39:49;;;;;;;15.23;2.30;;;;;;;;;;5077316;28;20090;-85
2023/10/05 11:42:16;;;;;;;7.77;2.37;;;;;;;;;;5080656;28;20040;-85
2023/10/05 11:44:44;;;;;;;10.70;3.05;;;;;;;;;;5096457;28;20472;-85
2023/10/05 11:47:19;;;;;;;8.15;2.85;;;;;;;;;;5075778;28;20096;-84
2023/10/05 11:49:45;;;;;;;6.63;2.47;;;;;;;;;;5068628;28;20028;-85
2023/10/05 11:52:12;;;;;;;6.03;2.30;;;;;;;;;;5074103;28;20037;-84
2023/10/05 11:54:39;;;;;;;8.32;2.63;;;;;;;;;;5092428;28;20032;-85
2023/10/05 11:57:05;;;;;;;8.43;2.47;;;;;;;;;;5072517;28;20051;-84
2023/10/05 11:59:31;;;;;;;8.15;3.70;;;;;;;;;;5077139;28;20028;-84
2023/10/05 12:01:56;;;;;;;7.75;2.47;;;;;;;;;;5069405;28;20032;-84
2023/10/05 12:04:23;;;;;;;6.68;2.03;;;;;;;;;;5077117;28;20034;-84
2023/10/05 12:06:58;;;;;;;6.13;2.70;;;;;;;;;;5092007;28;20207;-84
2023/10/05 12:09:28;;;;;;;6.63;2.30;;;;;;;;;;5075469;28;20042;-84
2023/10/05 12:11:54;;;;;;;7.72;2.58;;;;;;;;;;5082680;28;20044;-84
2023/10/05 12:14:19;;;;;;;12.00;3.15;;;;;;;;;;5060397;28;20030;-84
2023/10/05 12:16:45;;;;;;;9.75;2.55;;;;;;;;;;5070087;28;20379;-84
2023/10/05 12:19:21;;;;;;;5.70;2.17;;;;;;;;;;5095023;28;20103;-84
2023/10/05 12:21:46;;;;;;;9.27;2.38;;;;;;;;;;5092766;28;20346;-84
2023/10/05 12:24:11;;;;;;;9.80;2.43;;;;;;;;;;5090268;28;20480;-84
2023/10/05 12:26:39;;;;;;;8.00;2.70;;;;;;;;;;5087498;28;20291;-84
2023/10/05 12:29:04;;;;;;;6.25;2.00;;;;;;;;;;5092146;28;20531;-84
2023/10/05 12:31:33;;;;;;;6.78;2.55;;;;;;;;;;5075315;28;20126;-84
2023/10/05 12:33:58;;;;;;;6.45;1.92;;;;;;;;;;5070300;28;20033;-84
2023/10/05 12:36:23;;;;;;;8.53;2.77;;;;;;;;;;5084240;28;20040;-84
2023/10/05 12:38:49;;;;;;;6.23;2.50;;;;;;;;;;5087624;28;20277;-84
2023/10/05 12:41:14;;;;;;;6.70;2.28;;;;;;;;;;5088075;28;20317;-85
2023/10/05 12:43:40;;;;;;;9.37;2.70;;;;;;;;;;5089549;28;20549;-84
2023/10/05 12:46:10;;;;;;;7.90;2.60;;;;;;;;;;5083571;28;20074;-85
2023/10/05 12:48:35;;;;;;;5.70;1.75;;;;;;;;;;5071750;28;20043;-84
2023/10/05 12:51:00;;;;;;;7.38;2.50;;;;;;;;;;5089427;28;20033;-84
2023/10/05 12:53:26;;;;;;;8.23;2.20;;;;;;;;;;5092674;28;20032;-84
2023/10/05 12:55:51;;;;;;;7.57;2.33;;;;;;;;;;5070461;28;20306;-84
2023/10/05 12:58:16;;;;;;;9.77;2.53;;;;;;;;;;5086576;28;20036;-84
2023/10/05 13:00:42;;;;;;;8.60;2.40;;;;;;;;;;5093030;28;20289;-85
2023/10/05 13:03:10;;;;;;;6.82;2.83;;;;;;;;;;5089157;28;20040;-85
2023/10/05 13:05:43;;;;;;;6.80;2.45;;;;;;;;;;5087465;28;20039;-84
2023/10/05 13:08:10;;;;;;;9.27;2.67;;;;;;;;;;5085048;28;20031;-84
2023/10/05 13:10:36;;;;;;;10.70;3.17;;;;;;;;;;5086795;28;20036;-84
2023/10/05 13:13:01;;;;;;;8.88;2.80;;;;;;;;;;5084025;28;20112;-84
2023/10/05 13:15:32;;;;;;;7.88;2.45;;;;;;;;;;5091140;28;20035;-84
2023/10/05 13:17:58;;;;;;;6.67;2.53;;;;;;;;;;5087845;28;20542;-84
2023/10/05 13:20:24;;;;;;;6.35;2.50;;;;;;;;;;5073374;28;20290;-84
2023/10/05 13:22:53;;;;;;;6.88;2.83;;;;;;;;;;5083660;28;20036;-84
2023/10/05 13:25:22;;;;;;;6.78;2.40;;;;;;;;;;5068939;28;20047;-83
2023/10/05 13:27:48;;;;;;;6.53;2.30;;;;;;;;;;5086980;28;20033;-85
2023/10/05 13:30:22;;;;;;;7.38;2.22;;;;;;;;;;5088316;28;20039;-84
2023/10/05 13:32:47;;;;;;;6.10;2.30;;;;;;;;;;5067183;28;20036;-85
2023/10/05 13:35:12;;;;;;;8.13;2.50;;;;;;;;;;5086309;28;20038;-84
2023/10/05 13:37:38;;;;;;;6.63;2.38;;;;;;;;;;5085764;28;20028;-84
2023/10/05 13:40:05;;;;;;;7.80;2.47;;;;;;;;;;5070596;28;20036;-84
2023/10/05 13:42:35;;;;;;;9.60;2.47;;;;;;;;;;5074871;28;20070;-84
2023/10/05 13:45:09;;;;;;;7.70;2.38;;;;;;;;;;5092007;28;20036;-84
2023/10/05 13:47:35;;;;;;;8.07;2.75;;;;;;;;;;5077499;28;20064;-84
2023/10/05 13:50:07;;;;;;;9.70;2.70;;;;;;;;;;5069216;28;20074;-84
2023/10/05 13:52:33;;;;;;;9.18;2.75;;;;;;;;;;5086726;28;20790;-84
2023/10/05 13:54:59;;;;;;;7.80;2.70;;;;;;;;;;5083793;28;20036;-84
2023/10/05 13:57:28;;;;;;;5.30;2.53;;;;;;;;;;5094957;28;20032;-84
2023/10/05 13:59:54;;;;;;;6.68;2.10;;;;;;;;;;5072026;28;20028;-84
2023/10/05 14:02:19;;;;;;;8.20;2.60;;;;;;;;;;5074122;28;20035;-84
2023/10/05 14:04:45;;;;;;;8.63;2.55;;;;;;;;;;5087612;28;20020;-83
2023/10/05 14:07:11;;;;;;;5.78;2.35;;;;;;;;;;5095348;28;20082;-86
2023/10/05 14:09:44;;;;;;;8.57;2.58;;;;;;;;;;5091843;28;20028;-84
2023/10/05 14:12:10;;;;;;;8.48;2.40;;;;;;;;;;5079804;28;20035;-83
2023/10/05 14:14:35;;;;;;;8.50;2.30;;;;;;;;;;5080452;28;20039;-84
2023/10/05 14:17:06;;;;;;;14.25;2.50;;;;;;;;;;5093562;28;20427;-83
2023/10/05 14:19:31;;;;;;;7.35;2.00;;;;;;;;;;5091115;28;20107;-84
2023/10/05 14:21:58;;;;;;;9.80;3.00;;;;;;;;;;5072584;28;20059;-84
2023/10/05 14:24:25;;;;;;;7.72;2.33;;;;;;;;;;5096132;28;20115;-84
2023/10/05 14:26:54;;;;;;;6.45;2.35;;;;;;;;;;5078914;28;20051;-85
2023/10/05 14:29:20;;;;;;;9.82;2.30;;;;;;;;;;5087813;28;20046;-84
2023/10/05 14:31:52;;;;;;;7.50;2.08;;;;;;;;;;5093338;28;20062;-85
2023/10/05 14:34:18;;;;;;;7.38;2.25;;;;;;;;;;5075020;28;20040;-84
2023/10/05 14:36:44;;;;;;;8.40;2.25;;;;;;;;;;5096047;28;20165;-84
2023/10/05 14:39:21;;;;;;;9.95;2.90;;;;;;;;;;5073090;28;20067;-84
2023/10/05 14:41:46;;;;;;;6.63;2.10;;;;;;;;;;5095011;28;20035;-84
2023/10/05 14:44:11;;;;;;;10.27;2.15;;;;;;;;;;5090570;28;20377;-84
2023/10/05 14:46:36;;;;;;;8.80;2.40;;;;;;;;;;5059356;28;20020;-85
2023/10/05 14:49:02;;;;;;;6.93;2.40;;;;;;;;;;5075624;28;20323;-84
2023/10/05 14:51:28;;;;;;;6.40;2.25;;;;;;;;;;5078713;28;20032;-83
2023/10/05 14:53:53;;;;;;;7.43;2.40;;;;;;;;;;5077405;28;20019;-84
2023/10/05 14:56:18;;;;;;;7.63;2.80;;;;;;;;;;5061477;28;20274;-84
2023/10/05 14:58:44;;;;;;;7.88;2.40;;;;;;;;;;5094563;28;20035;-84
2023/10/05 15:01:10;;;;;;;8.15;2.55;;;;;;;;;;5094322;28;20032;-85
2023/10/05 15:03:38;;;;;;;11.13;2.38;;;;;;;;;;5071149;28;20028;-85
2023/10/05 15:06:04;;;;;;;6.38;2.28;;;;;;;;;;5090550;28;20078;-84
2023/10/05 15:08:30;;;;;;;7.65;2.40;;;;;;;;;;5076842;28;20048;-86
2023/10/05 15:10:55;;;;;;;7.20;2.42;;;;;;;;;;5090247;28;20596;-83